Lupin, Canada
Current Conditions -  °F | °C
As of 2:00 AM on Thursday 27 Nov 2014 (Local Time) from CYWE Reporting Station
Few Clouds Few Clouds  
Wind Chill: -34°   Ceiling: Unl
Heat Index: -11°   Visibility: 9mi
Dew Point: -17°   Wind: 15mph
Humidity: 77%   Direction: 310°NW
Pressure: 30.27"   Gusts: NA
Location:  65.76°N, 111.25°W
Report Text: CYWE 270900Z AUTO 31013KT 9SM FEW110 M24/M27 A3027 RMK SLP305
Loading
Personal Weather Stations






























Interactive Weather Map New forecast layout! Learn more

10-Day Weather Forecast

Advertisements
Track Severe Weather on mobile